• Join FlightAware (Why Join?)
  • Login
  • US Flag GB Flag 
06:44 EST


 

Airport Tracker/Info


-or-


 

Live Flight TrackerFlight Track Log ✈ SWA1725 ✈ 10-Apr-2013 ✈ KSMF - KMDW

Flight Track Log - Related Links

Times and Time Zones

All times are in EDT time to prevent confusion due to time zone crossing. See the SWA1725 flight status page for this flight to view local times or setup timezone preferences in your user account.

Time Position Orientation Groundspeed Altitude Reporting Facility
EDT Latitude Longitude Course Direction KTS MPH feet Rate Location/Type
17:04 38.7167 -121.6000 38° Northeast 154 177 700  Level Northern Cal TRACON
17:05 38.7500 -121.5667 38° Northeast 223 257 2,400 2,100 Climbing Northern Cal TRACON
17:06 38.7500 -121.4833 90° East 266 306 5,000 2,760 Climbing Northern Cal TRACON
17:08 38.7492 -121.3256 90° East 286 329 10,000 2,580 Climbing Oakland Center
17:09 38.7097 -121.2156 115° Southeast 337 388 12,100 2,340 Climbing Oakland Center
17:10 38.6656 -121.0917 115° Southeast 376 433 14,800 2,520 Climbing Oakland Center
17:11 38.6625 -120.9522 92° East 389 448 17,300 2,340 Climbing Oakland Center
17:12 38.6581 -120.8067 92° East 405 466 19,600 2,340 Climbing Oakland Center
17:13 38.6544 -120.6228 91° East 428 493 22,100 2,160 Climbing Oakland Center
17:14 38.6506 -120.4642 92° East 443 510 24,100 1,800 Climbing Oakland Center
17:15 38.6475 -120.2997 91° East 460 529 25,900 1,620 Climbing Oakland Center
17:16 38.6422 -120.1314 92° East 472 543 27,500 1,560 Climbing Oakland Center
17:17 38.6397 -119.9603 91° East 479 551 29,100 1,620 Climbing Oakland Center
17:18 38.6328 -119.7875 93° East 487 560 30,800 1,680 Climbing Oakland Center
17:19 38.6269 -119.6158 92° East 487 560 32,600 1,560 Climbing Oakland Center
17:20 38.6233 -119.4469 92° East 479 551 34,000 1,140 Climbing Oakland Center
17:21 38.6158 -119.2775 93° East 479 551 35,000 780 Climbing Oakland Center
17:22 38.6078 -119.0742 93° East 481 554 35,600 840 Climbing Oakland Center
17:23 38.6017 -118.9067 93° East 477 549 36,800 480 Climbing Oakland Center
17:25 38.5897 -118.6064 93° East 472 543 37,000 60 Climbing Salt Lake Center
17:25 38.5894 -118.5725 91° East 472 543 37,000  Level Oakland Center
17:26 38.5819 -118.4047 93° East 474 545 37,000  Level Oakland Center
17:27 38.5750 -118.2389 93° East 471 542 37,000  Level Oakland Center
17:28 38.5678 -118.0575 93° East 475 547 37,000  Level Oakland Center
17:29 38.5881 -117.8956 81° East 463 533 37,000  Level Oakland Center
17:30 38.6125 -117.7342 79° East 459 528 37,000  Level Oakland Center
17:31 38.6322 -117.6033 79° East 464 534 37,000  Level Salt Lake Center
17:32 38.6578 -117.4408 79° East 463 533 37,000  Level Salt Lake Center
17:33 38.6867 -117.2469 79° East 460 529 37,000  Level Oakland Center
17:34 38.7119 -117.0839 79° East 463 533 37,000  Level Oakland Center
17:35 38.7367 -116.9225 79° East 461 531 37,000  Level Oakland Center
17:36 38.7547 -116.7925 80° East 459 528 37,000  Level Salt Lake Center
17:37 38.7792 -116.6283 79° East 465 535 37,000  Level Salt Lake Center
17:38 38.8061 -116.4322 80° East 465 535 37,000  Level Salt Lake Center
17:39 38.8294 -116.2725 79° East 457 526 37,000  Level Salt Lake Center
17:40 38.8525 -116.1094 80° East 463 533 37,000  Level Salt Lake Center
17:41 38.8750 -115.9469 80° East 462 532 37,000  Level Salt Lake Center
17:42 38.8964 -115.7867 80° East 457 526 37,000  Level Salt Lake Center
17:43 38.9203 -115.6250 79° East 459 528 37,000  Level Salt Lake Center
17:44 38.9414 -115.4650 80° East 455 524 37,000  Level Salt Lake Center
17:45 38.9675 -115.2806 80° East 459 528 37,000  Level Salt Lake Center
17:46 38.9994 -115.1250 75° East 453 521 37,000  Level Salt Lake Center
17:47 39.0336 -114.9703 74° East 451 519 37,000  Level Salt Lake Center
17:48 39.0653 -114.8181 75° East 444 511 37,000  Level Salt Lake Center
17:49 39.0992 -114.6642 74° East 446 513 37,000  Level Salt Lake Center
17:50 39.1314 -114.5114 75° East 444 511 37,000  Level Salt Lake Center
17:52 39.1642 -114.3578 75° East 444 511 37,000  Level Salt Lake Center
17:53 39.2022 -114.1742 75° East 444 511 37,000  Level Salt Lake Center
17:54 39.2336 -114.0200 75° East 444 511 37,000  Level Salt Lake Center
17:55 39.2650 -113.8653 75° East 447 514 37,000  Level Salt Lake Center
17:56 39.2967 -113.7106 75° East 446 513 37,000  Level Salt Lake Center
17:57 39.3275 -113.5556 76° East 447 514 37,000  Level Salt Lake Center
17:58 39.3583 -113.4008 76° East 445 512 37,000  Level Salt Lake Center
17:59 39.3897 -113.2453 75° East 446 513 37,000  Level Salt Lake Center
18:00 39.4200 -113.0922 76° East 442 509 37,000  Level Salt Lake Center
18:01 39.4558 -112.9069 76° East 442 509 37,000  Level Salt Lake Center
18:02 39.4853 -112.7533 76° East 440 506 37,000  Level Salt Lake Center
18:03 39.5122 -112.6161 76° East 435 501 37,000  Level Salt Lake Center
18:04 39.5411 -112.4658 76° East 432 497 37,000  Level Salt Lake Center
18:05 39.5692 -112.3167 76° East 429 494 37,000  Level Salt Lake Center
18:06 39.6033 -112.1403 76° East 424 488 37,000  Level Salt Lake Center
18:07 39.6306 -111.9900 77° East 429 494 37,000  Level Salt Lake Center
18:08 39.6594 -111.8419 76° East 426 490 37,000  Level Salt Lake Center
18:09 39.6875 -111.6906 76° East 432 497 37,000  Level Salt Lake Center
18:10 39.7142 -111.5394 77° East 433 498 37,000  Level Salt Lake Center
18:11 39.7417 -111.3903 76° East 428 493 37,000  Level Salt Lake Center
18:12 39.7717 -111.2172 77° East 438 504 37,000  Level Salt Lake Center
18:13 39.7981 -111.0706 77° East 438 504 37,000  Level Salt Lake Center
18:14 39.8281 -110.9003 77° East 433 498 37,000  Level Salt Lake Center
18:15 39.8544 -110.7531 77° East 436 502 37,000  Level Salt Lake Center
18:16 39.8836 -110.5794 78° East 438 504 37,000  Level Salt Lake Center
18:17 39.9103 -110.4328 77° East 436 502 37,000  Level Salt Lake Center
18:18 39.9356 -110.2886 77° East 430 495 37,000  Level Salt Lake Center
18:19 39.9628 -110.1192 78° East 428 493 37,000  Level Salt Lake Center
18:20 39.9850 -109.9753 79° East 424 488 37,000  Level Salt Lake Center
18:21 40.0136 -109.8069 77° East 423 487 37,000  Level Salt Lake Center
18:22 40.0364 -109.6631 78° East 424 488 37,000  Level Salt Lake Center
18:23 40.0597 -109.5194 78° East 422 486 37,000  Level Salt Lake Center
18:24 40.0861 -109.3528 78° East 419 482 37,000  Level Salt Lake Center
18:25 40.1092 -109.2081 78° East 418 481 37,000  Level Denver Center
18:26 40.1358 -109.0428 78° East 416 479 37,000  Level Denver Center
18:27 40.1586 -108.8994 78° East 418 481 37,000  Level Denver Center
18:28 40.1800 -108.7564 79° East 418 481 37,000  Level Denver Center
18:29 40.2072 -108.5906 78° East 421 484 37,000  Level Salt Lake Center
18:30 40.2289 -108.4456 79° East 422 486 37,000  Level Salt Lake Center
18:32 40.2542 -108.2756 79° East 422 486 37,000  Level Denver Center
18:33 40.2756 -108.1331 79° East 417 480 37,000  Level Denver Center
18:34 40.2969 -107.9917 79° East 414 476 37,000  Level Denver Center
18:35 40.3206 -107.8289 79° East 408 470 37,000  Level Denver Center
18:36 40.3411 -107.6881 79° East 411 473 37,000  Level Denver Center
18:37 40.3653 -107.5228 79° East 413 475 37,000  Level Denver Center
18:39 40.4072 -107.2183 80° East 410 472 37,000  Level Denver Center
18:40 40.4283 -107.0783 79° East 410 472 37,000  Level Denver Center
18:41 40.4475 -106.9381 80° East 408 470 37,000  Level Denver Center
18:42 40.4697 -106.7761 80° East 411 473 37,000  Level Denver Center
18:43 40.4903 -106.6269 80° East 413 475 37,000  Level Denver Center
18:44 40.5136 -106.4603 80° East 421 484 37,000  Level Denver Center
18:45 40.5336 -106.3128 80° East 426 490 37,000  Level Denver Center
18:46 40.5536 -106.1403 81° East 434 499 37,000  Level Denver Center
18:47 40.5756 -105.9828 80° East 433 498 37,000  Level Denver Center
18:48 40.5958 -105.8253 80° East 432 497 37,000  Level Denver Center
18:49 40.6153 -105.6653 81° East 437 503 37,000  Level Denver Center
18:50 40.6364 -105.5031 80° East 440 506 37,000  Level Denver Center
18:51 40.6567 -105.3436 80° East 436 502 37,000  Level Denver Center
18:52 40.6750 -105.1836 81° East 436 502 37,000  Level Denver Center
18:53 40.6944 -105.0250 81° East 434 499 37,000  Level Denver Center
18:54 40.7144 -104.8664 81° East 434 499 37,000  Level Denver Center
18:55 40.7328 -104.7064 81° East 437 503 37,000  Level Denver Center
18:56 40.7514 -104.5467 81° East 435 501 37,000  Level Denver Center
18:57 40.7711 -104.3833 81° East 443 510 37,000  Level Denver Center
18:58 40.7922 -104.1928 82° East 446 513 37,000  Level Denver Center
18:59 40.8117 -104.0283 81° East 449 517 37,000  Level Denver Center
19:00 40.8289 -103.8617 82° East 453 521 37,000  Level Denver Center
19:01 40.8472 -103.6967 82° East 451 519 37,000  Level Denver Center
19:02 40.8647 -103.5308 82° East 451 519 37,000  Level Denver Center
19:03 40.8828 -103.3656 82° East 451 519 37,000  Level Denver Center
19:04 40.8972 -103.2275 82° East 451 519 37,000  Level Denver Center
19:05 40.9169 -103.0325 82° East 455 524 37,000  Level Denver Center
19:06 40.9367 -102.8508 82° East 460 529 37,000  Level Denver Center
19:07 40.9519 -102.6900 83° East 461 531 37,000  Level Denver Center
19:08 40.9717 -102.4992 82° East 469 540 37,000  Level Denver Center
19:10 40.9872 -102.3358 83° East 468 539 37,000  Level Denver Center
19:11 41.0042 -102.1725 82° East 468 539 37,000  Level Denver Center
19:12 41.0219 -101.9822 83° East 466 536 37,000  Level Denver Center
19:13 41.0375 -101.8194 83° East 465 535 37,000  Level Denver Center
19:14 41.0550 -101.6292 83° East 465 535 37,000  Level Denver Center
19:15 41.0694 -101.4658 83° East 466 536 37,000  Level Denver Center
19:16 41.0822 -101.3033 84° East 463 533 37,000  Level Denver Center
19:17 41.0989 -101.1139 83° East 461 531 37,000  Level Denver Center
19:18 41.1125 -100.9519 84° East 459 528 37,000  Level Denver Center
19:19 41.1289 -100.7628 83° East 459 528 37,000  Level Denver Center
19:20 41.1417 -100.5997 84° East 460 529 37,000  Level Denver Center
19:21 41.1556 -100.4361 84° East 463 533 37,000  Level Denver Center
19:22 41.1706 -100.2442 84° East 465 535 37,000  Level Denver Center
19:23 41.1833 -100.0789 84° East 468 539 37,000  Level Denver Center
19:24 41.1958 -99.9125 84° East 471 542 37,000  Level Denver Center
19:25 41.2081 -99.7464 84° East 472 543 37,000  Level Denver Center
19:26 41.2222 -99.5528 84° East 472 543 37,000  Level Denver Center
19:27 41.2361 -99.3619 84° East 470 541 37,000  Level Denver Center
19:28 41.2483 -99.1875 85° East 472 543 37,000  Level Denver Center
19:29 41.2614 -99.0006 85° East 470 541 37,000  Level Denver Center
19:30 41.2703 -98.8344 86° East 471 542 37,000  Level Denver Center
19:31 41.2792 -98.7231 84° East 470 541 37,000  Level Minneapolis Center
19:32 41.2903 -98.5500 85° East 470 541 37,000  Level Minneapolis Center
19:33 41.3008 -98.3764 85° East 473 544 37,000  Level Minneapolis Center
19:34 41.3131 -98.1683 85° East 471 542 37,000  Level Minneapolis Center
19:35 41.3231 -97.9972 85° East 467 537 37,000  Level Minneapolis Center
19:36 41.3333 -97.8267 85° East 465 535 37,000  Level Minneapolis Center
19:37 41.3453 -97.6244 85° East 462 532 37,000  Level Minneapolis Center
19:38 41.3542 -97.4561 86° East 458 527 37,000  Level Minneapolis Center
19:39 41.3636 -97.2903 86° East 454 522 37,000  Level Minneapolis Center
19:40 41.3722 -97.1261 86° East 448 516 37,000  Level Minneapolis Center
19:41 41.3789 -96.9597 87° East 449 517 37,000  Level Minneapolis Center
19:42 41.3883 -96.7925 86° East 451 519 37,000  Level Minneapolis Center
19:43 41.3958 -96.6258 87° East 452 520 37,000  Level Minneapolis Center
19:44 41.4044 -96.4603 86° East 450 518 37,000  Level Minneapolis Center
19:45 41.4133 -96.2603 87° East 444 511 37,000  Level Minneapolis Center
19:46 41.4197 -96.0986 87° East 440 506 37,000  Level Minneapolis Center
19:47 41.4261 -95.9333 87° East 443 510 37,000  Level Minneapolis Center
19:48 41.4325 -95.7700 87° East 443 510 37,000  Level Minneapolis Center
19:49 41.4381 -95.5933 88° East 448 516 37,000  Level Minneapolis Center
19:50 41.4436 -95.4292 87° East 445 512 37,000  Level Minneapolis Center
19:51 41.4494 -95.2650 87° East 444 511 37,000  Level Minneapolis Center
19:52 41.4561 -95.1053 87° East 437 503 37,000 -420 Level Minneapolis Center
19:53 41.4617 -94.9439 87° East 436 502 36,200 -900 Descending Minneapolis Center
19:55 41.4636 -94.7778 89° East 443 510 35,200 -600 Descending Minneapolis Center
19:56 41.4697 -94.6072 87° East 455 524 35,000 -120 Descending Minneapolis Center
19:57 41.4753 -94.4042 88° East 457 526 35,000  Level Minneapolis Center
19:58 41.4811 -94.2319 87° East 462 532 35,000  Level Minneapolis Center
19:59 41.4828 -94.0894 89° East 460 529 35,000  Level Minneapolis Center
20:00 41.4889 -93.8833 88° East 464 534 35,000  Level Minneapolis Center
20:01 41.4778 -93.7186 95° East 453 521 35,000  Level Minneapolis Center
20:02 41.4669 -93.5525 95° East 451 519 35,000  Level Minneapolis Center
20:03 41.4578 -93.3828 94° East 458 527 35,000  Level Minneapolis Center
20:04 41.4467 -93.2156 95° East 456 525 35,000  Level Minneapolis Center
20:05 41.4367 -93.0442 94° East 461 531 35,000 -300 Level Minneapolis Center
20:06 41.4231 -92.8406 95° East 463 533 34,400 -840 Descending Minneapolis Center
20:07 41.4094 -92.6386 95° East 459 528 33,200 -840 Descending Minneapolis Center
20:08 41.4022 -92.5336 95° East 466 536 33,000 -780 Descending Chicago Center
20:09 41.3894 -92.3483 95° East 467 537 32,000 -960 Descending Chicago Center
20:10 41.3775 -92.1761 95° East 472 543 31,100 -960 Descending Chicago Center
20:11 41.3644 -92.0017 96° East 477 549 30,100 -1,020 Descending Chicago Center
20:12 41.3519 -91.8314 96° East 469 540 29,100 -540 Descending Chicago Center
20:13 41.3372 -91.6581 96° East 474 545 29,000 -60 Descending Chicago Center
20:14 41.3256 -91.4881 95° East 469 540 29,000  Level Chicago Center
20:15 41.3081 -91.2778 96° East 474 545 29,000  Level Chicago Center
20:16 41.2936 -91.1019 96° East 477 549 29,000 -540 Level Chicago Center
20:17 41.2794 -90.9242 96° East 481 554 28,000 -2,100 Descending Chicago Center
20:18 41.2647 -90.7461 96° East 484 557 24,800 -2,100 Descending Chicago Center
20:19 41.2492 -90.5719 97° East 477 549 23,700 -900 Descending Chicago Center
20:20 41.2342 -90.3981 96° East 473 544 23,000 -360 Descending Chicago Center
20:21 41.2189 -90.2258 97° East 469 540 23,000  Level Chicago Center
20:22 41.2025 -90.0542 97° East 467 537 23,000 -1,440 Level Chicago Center
20:23 41.1883 -89.8806 96° East 469 540 20,100 -3,420 Descending Chicago Center
20:24 41.1678 -89.6792 98° East 455 524 16,100 -3,180 Descending Chicago Center
20:25 41.1636 -89.5244 92° East 425 489 13,600 -1,680 Descending Chicago Center
20:26 41.1742 -89.3850 84° East 384 442 12,700 -1,200 Descending Chicago Center
20:27 41.1822 -89.2567 85° East 355 409 11,200 -1,320 Descending Chicago Center
20:28 41.2008 -89.1225 80° East 350 403 10,000 -600 Descending Chicago Center
20:29 41.2511 -89.0089 59° Northeast 355 409 10,000  Level Chicago Center
20:30 41.2964 -88.8997 61° Northeast 342 394 10,000 -540 Level Chicago Center
20:31 41.3406 -88.7992 60° Northeast 321 369 8,900 -1,320 Descending Chicago Center
20:32 41.3839 -88.7006 60° Northeast 311 358 7,300 -1,380 Descending Chicago Center
20:33 41.4242 -88.6053 61° Northeast 301 346 6,100 -600 Descending Chicago Center
20:34 41.4603 -88.5031 65° Northeast 260 299 6,100 -120 Level Chicago Center
20:35 41.4739 -88.4100 79° East 256 295 5,900 -120 Descending Chicago Center
20:36 41.4856 -88.3289 79° East 233 268 5,900 -240 Level Chicago Center
20:37 41.4969 -88.2525 79° East 215 247 5,500 -600 Descending Chicago Center
20:39 41.5078 -88.1811 79° East 202 232 4,700 -840 Descending Chicago Center
20:40 41.5169 -88.1144 80° East 189 217 3,900 -780 Descending Chicago Center
20:41 41.5411 -88.0586 60° Northeast 182 209 3,200 -720 Descending Chicago Center
20:42 41.5758 -88.0158 43° Northeast 175 201 2,500 -420 Descending Chicago Center
20:43 41.6131 -87.9692 43° Northeast 163 188 2,400 -60 Descending Chicago Center
20:44 41.6433 -87.9311 43° Northeast 156 180 2,400  Level Chicago Center
20:45 41.6744 -87.8919 43° Northeast 153 176 2,400 60 Level Chicago Center
20:45 41.7000 -87.8667 36° Northeast 152 175 2,500 -180 Climbing Chicago TRACON
20:46 41.7167 -87.8333 56° Northeast 139 160 2,200 -540 Descending Chicago TRACON
20:47 41.7500 -87.8000 37° Northeast 117 135 1,500 -660 Descending Chicago TRACON
20:48 41.7667 -87.7667 56° Northeast 124 143 900 -600 Descending Chicago TRACON